Time;durP1;ratioP1;P1;durP2;ratioP2;P2;SDS_P1;SDS_P2;PMS_P1;PMS_P2;Temp;Humidity;BMP_temperature;BMP_pressure;BME280_temperature;BME280_humidity;BME280_pressure;Samples;Min_cycle;Max_cycle;Signal;HPM_P1;HPM_P2
2022/01/19 00:02:00;;;;;;;;;;;3.10;99.90;;;;;;5067787;28;19920;-70
2022/01/19 00:04:28;;;;;;;;;;;3.10;99.90;;;;;;5083089;28;19926;-70
2022/01/19 00:06:54;;;;;;;;;;;3.00;99.90;;;;;;5083402;28;19920;-70
2022/01/19 00:09:23;;;;;;;;;;;3.00;99.90;;;;;;5082897;28;19920;-70
2022/01/19 00:11:50;;;;;;;;;;;3.00;99.90;;;;;;5083377;28;19955;-70
2022/01/19 00:14:16;;;;;;;;;;;3.00;99.90;;;;;;5083299;28;19920;-70
2022/01/19 00:16:43;;;;;;;;;;;3.00;99.90;;;;;;5083358;28;19920;-70
2022/01/19 00:19:10;;;;;;;;;;;3.00;99.90;;;;;;5083017;28;19921;-70
2022/01/19 00:21:37;;;;;;;;;;;3.10;99.90;;;;;;5079431;28;19927;-70
2022/01/19 00:24:04;;;;;;;;;;;3.00;99.90;;;;;;5063056;28;19928;-70
2022/01/19 00:26:31;;;;;;;;;;;3.00;99.90;;;;;;5065855;28;19959;-70
2022/01/19 00:28:59;;;;;;;;;;;3.00;99.90;;;;;;5066733;28;19927;-70
2022/01/19 00:31:25;;;;;;;;;;;2.90;99.90;;;;;;5069930;28;19951;-71
2022/01/19 00:33:52;;;;;;;;;;;2.90;99.90;;;;;;5067119;28;20203;-70
2022/01/19 00:36:18;;;;;;;;;;;2.90;99.90;;;;;;5067452;28;19991;-70
2022/01/19 00:38:46;;;;;;;;;;;2.90;99.90;;;;;;5066645;28;19925;-70
2022/01/19 00:41:13;;;;;;;;;;;2.80;99.90;;;;;;5067185;28;19921;-70
2022/01/19 00:43:39;;;;;;;;;;;2.80;99.90;;;;;;5081131;28;20204;-70
2022/01/19 00:46:06;;;;;;;;;;;2.80;99.90;;;;;;5086552;28;20208;-70
2022/01/19 00:48:33;;;;;;;;;;;2.80;99.90;;;;;;5085763;28;20204;-70
2022/01/19 00:50:59;;;;;;;;;;;2.80;99.90;;;;;;5086928;28;19926;-70
2022/01/19 00:53:26;;;;;;;;;;;2.80;99.90;;;;;;5073551;28;19999;-70
2022/01/19 00:55:56;;;;;;;;;;;2.80;99.90;;;;;;5066603;28;19948;-71
2022/01/19 00:58:23;;;;;;;;;;;2.70;99.90;;;;;;5066010;28;19921;-70
2022/01/19 01:00:49;;;;;;;;;;;2.70;99.90;;;;;;5066578;28;19921;-70
2022/01/19 01:03:16;;;;;;;;;;;2.70;99.90;;;;;;5066604;28;19925;-70
2022/01/19 01:05:43;;;;;;;;;;;2.60;99.90;;;;;;5066076;28;20227;-70
2022/01/19 01:08:10;;;;;;;;;;;2.60;99.90;;;;;;5065900;28;19925;-70
2022/01/19 01:10:42;;;;;;;;;;;2.60;99.90;;;;;;5066608;28;19920;-71
2022/01/19 01:13:22;;;;;;;;;;;2.50;99.90;;;;;;5066594;28;19928;-70
2022/01/19 01:15:49;;;;;;;;;;;2.50;99.90;;;;;;5072700;28;19934;-70
2022/01/19 01:18:20;;;;;;;;;;;2.50;99.90;;;;;;5085828;28;19924;-70
2022/01/19 01:20:48;;;;;;;;;;;2.40;99.90;;;;;;5086045;28;19920;-70
2022/01/19 01:23:15;;;;;;;;;;;2.40;99.90;;;;;;5083203;28;19920;-71
2022/01/19 01:25:41;;;;;;;;;;;2.40;99.90;;;;;;5066090;28;19927;-70
2022/01/19 01:28:09;;;;;;;;;;;2.40;99.90;;;;;;5066025;28;20167;-70
2022/01/19 01:30:36;;;;;;;;;;;2.40;99.90;;;;;;5068546;28;19928;-70
2022/01/19 01:33:03;;;;;;;;;;;2.30;99.90;;;;;;5067798;28;19928;-70
2022/01/19 01:35:30;;;;;;;;;;;2.30;99.90;;;;;;5065706;28;19925;-70
2022/01/19 01:37:56;;;;;;;;;;;2.20;99.90;;;;;;5064934;28;19921;-70
2022/01/19 01:40:25;;;;;;;;;;;2.20;99.90;;;;;;5066060;28;19921;-70
2022/01/19 01:42:52;;;;;;;;;;;2.20;99.90;;;;;;5079106;28;19920;-70
2022/01/19 01:45:25;;;;;;;;;;;2.10;99.90;;;;;;5085601;28;19920;-70
2022/01/19 01:48:01;;;;;;;;;;;2.10;99.90;;;;;;5085083;28;20266;-70
2022/01/19 01:53:26;;;;;;;;;;;2.00;99.90;;;;;;5069328;28;19923;-70
2022/01/19 01:55:54;;;;;;;;;;;1.90;99.90;;;;;;5065607;28;19920;-70
2022/01/19 01:58:21;;;;;;;;;;;1.90;99.90;;;;;;5065010;28;19958;-70
2022/01/19 02:00:49;;;;;;;;;;;1.90;99.90;;;;;;5065648;28;19927;-70
2022/01/19 02:03:15;;;;;;;;;;;1.80;99.90;;;;;;5081257;28;20238;-70
2022/01/19 02:05:54;;;;;;;;;;;1.80;99.90;;;;;;5080896;28;20147;-71
2022/01/19 02:08:23;;;;;;;;;;;1.80;99.90;;;;;;5064942;28;19921;-70
2022/01/19 02:11:04;;;;;;;;;;;1.70;99.90;;;;;;5065323;28;19920;-70
2022/01/19 02:16:25;;;;;;;;;;;1.70;99.90;;;;;;5065252;28;19959;-70
2022/01/19 02:21:39;;;;;;;;;;;1.50;99.90;;;;;;5081899;28;19955;-70
2022/01/19 02:24:08;;;;;;;;;;;1.60;99.90;;;;;;5064755;28;20292;-70
2022/01/19 02:26:49;;;;;;;;;;;1.50;99.90;;;;;;5064893;28;19921;-70
2022/01/19 02:29:26;;;;;;;;;;;1.50;99.90;;;;;;5065013;28;19920;-70
2022/01/19 02:36:34;;;;;;;;;;;1.50;99.90;;;;;;5065218;28;19985;-70
2022/01/19 02:40:19;;;;;;;;;;;1.20;99.90;;;;;;5042233;28;19925;-70
2022/01/19 02:42:56;;;;;;;;;;;1.10;99.90;;;;;;5064205;28;19943;-70
2022/01/19 02:50:51;;;;;;;;;;;0.90;99.90;;;;;;5064515;28;20179;-70
2022/01/19 02:53:19;;;;;;;;;;;0.90;99.90;;;;;;5064280;28;19925;-70
2022/01/19 02:55:46;;;;;;;;;;;0.90;99.90;;;;;;5064295;28;19927;-70
2022/01/19 02:58:14;;;;;;;;;;;0.80;99.90;;;;;;5063844;28;19927;-70
2022/01/19 03:09:14;;;;;;;;;;;0.80;99.90;;;;;;5039570;28;19967;-71
2022/01/19 03:11:40;;;;;;;;;;;0.70;99.90;;;;;;5064182;28;19921;-70
2022/01/19 03:14:08;;;;;;;;;;;0.70;99.90;;;;;;5063918;28;19921;-70
2022/01/19 03:16:35;;;;;;;;;;;0.70;99.90;;;;;;5064030;28;19963;-70
2022/01/19 03:19:02;;;;;;;;;;;0.70;99.90;;;;;;5063911;28;19927;-71
2022/01/19 03:21:28;;;;;;;;;;;0.70;99.90;;;;;;5063830;28;19920;-70
2022/01/19 03:23:55;;;;;;;;;;;0.70;99.90;;;;;;5063702;28;19921;-70
2022/01/19 03:26:23;;;;;;;;;;;0.70;99.90;;;;;;5064049;28;20141;-70
2022/01/19 03:28:49;;;;;;;;;;;0.60;99.90;;;;;;5065660;28;19927;-70
2022/01/19 03:31:16;;;;;;;;;;;0.60;99.90;;;;;;5066995;28;19920;-70
2022/01/19 03:33:44;;;;;;;;;;;0.50;99.90;;;;;;5063730;28;19928;-70
2022/01/19 03:36:10;;;;;;;;;;;0.50;99.90;;;;;;5064124;28;19956;-70
2022/01/19 03:38:37;;;;;;;;;;;0.50;99.90;;;;;;5063323;28;19921;-70
2022/01/19 03:41:03;;;;;;;;;;;0.50;99.90;;;;;;5063638;28;20212;-70
2022/01/19 03:43:31;;;;;;;;;;;0.40;99.90;;;;;;5063800;28;19922;-70
2022/01/19 03:45:59;;;;;;;;;;;0.40;99.90;;;;;;5063605;28;20101;-70
2022/01/19 03:48:42;;;;;;;;;;;0.40;99.90;;;;;;5064664;28;19984;-70
2022/01/19 03:51:08;;;;;;;;;;;0.40;99.90;;;;;;5083511;28;20246;-70
2022/01/19 03:53:35;;;;;;;;;;;0.40;99.90;;;;;;5083548;28;19924;-69
2022/01/19 03:56:02;;;;;;;;;;;0.40;99.90;;;;;;5083232;28;19921;-70
2022/01/19 03:58:28;;;;;;;;;;;0.30;99.90;;;;;;5081302;28;19927;-70
2022/01/19 04:00:59;;;;;;;;;;;0.30;99.90;;;;;;5063653;28;20089;-70
2022/01/19 04:03:36;;;;;;;;;;;0.30;99.90;;;;;;5063525;28;19929;-70
2022/01/19 04:06:14;;;;;;;;;;;0.30;99.90;;;;;;5063672;28;19921;-70
2022/01/19 04:08:41;;;;;;;;;;;0.20;99.90;;;;;;5063634;28;20388;-71
2022/01/19 04:11:08;;;;;;;;;;;0.20;99.90;;;;;;5083302;28;20111;-70
2022/01/19 04:13:54;;;;;;;;;;;0.20;99.90;;;;;;5064111;28;19921;-70
2022/01/19 04:16:22;;;;;;;;;;;0.20;99.90;;;;;;5063334;28;20151;-69
2022/01/19 04:18:51;;;;;;;;;;;0.20;99.90;;;;;;5063600;28;19924;-70
2022/01/19 04:21:17;;;;;;;;;;;0.10;99.90;;;;;;5063037;28;19927;-70
2022/01/19 04:23:44;;;;;;;;;;;0.10;99.90;;;;;;5063030;28;19921;-70
2022/01/19 04:26:11;;;;;;;;;;;0.10;99.90;;;;;;5063437;28;20111;-70
2022/01/19 04:28:37;;;;;;;;;;;0.10;99.90;;;;;;5063530;28;19920;-70
2022/01/19 04:31:04;;;;;;;;;;;0.10;99.90;;;;;;5069760;28;19921;-70
2022/01/19 04:33:32;;;;;;;;;;;0.10;99.90;;;;;;5064426;28;19928;-70
2022/01/19 04:36:18;;;;;;;;;;;0.00;99.90;;;;;;5063457;28;19927;-70
2022/01/19 04:44:35;;;;;;;;;;;0.10;99.90;;;;;;5062964;28;19923;-70
2022/01/19 04:48:04;;;;;;;;;;;0.10;99.90;;;;;;5063200;28;20212;-70
2022/01/19 05:01:44;;;;;;;;;;;-0.10;99.90;;;;;;5058436;28;19983;-69
2022/01/19 05:04:24;;;;;;;;;;;-0.20;99.90;;;;;;5062502;28;20204;-70
2022/01/19 05:07:04;;;;;;;;;;;-0.20;99.90;;;;;;5063089;28;20147;-70
2022/01/19 05:09:54;;;;;;;;;;;-0.20;99.90;;;;;;5067354;28;20220;-70
2022/01/19 05:15:07;;;;;;;;;;;-0.20;99.90;;;;;;5086254;28;19923;-70
2022/01/19 05:17:34;;;;;;;;;;;-0.20;99.90;;;;;;5086264;28;20204;-70
2022/01/19 05:20:00;;;;;;;;;;;-0.30;99.90;;;;;;5086142;28;19921;-69
2022/01/19 05:22:28;;;;;;;;;;;-0.20;99.90;;;;;;5076295;28;19928;-70
2022/01/19 05:24:54;;;;;;;;;;;-0.30;99.90;;;;;;5066271;28;19920;-70
2022/01/19 05:27:22;;;;;;;;;;;-0.30;99.90;;;;;;5066247;28;19920;-70
2022/01/19 05:29:48;;;;;;;;;;;-0.30;99.90;;;;;;5074820;28;19921;-70
2022/01/19 05:32:15;;;;;;;;;;;-0.30;99.90;;;;;;5077389;28;19921;-70
2022/01/19 05:34:43;;;;;;;;;;;-0.30;99.90;;;;;;5066151;28;19925;-70
2022/01/19 05:37:09;;;;;;;;;;;-0.40;99.90;;;;;;5066375;28;19928;-72
2022/01/19 05:39:37;;;;;;;;;;;-0.40;99.90;;;;;;5094227;23;19920;-73
2022/01/19 05:42:04;;;;;;;;;;;-0.40;99.90;;;;;;5078529;28;19921;-72
2022/01/19 05:44:31;;;;;;;;;;;-0.40;99.90;;;;;;5086030;28;19920;-74
2022/01/19 05:46:58;;;;;;;;;;;-0.40;99.90;;;;;;5086596;28;19920;-72
2022/01/19 05:49:35;;;;;;;;;;;-0.50;99.90;;;;;;5085788;28;19920;-73
2022/01/19 05:52:02;;;;;;;;;;;-0.50;99.90;;;;;;5060597;28;20223;-72
2022/01/19 05:54:28;;;;;;;;;;;-0.50;99.90;;;;;;5065802;28;19920;-72
2022/01/19 05:56:57;;;;;;;;;;;-0.50;99.90;;;;;;5066117;28;20230;-73
2022/01/19 05:59:23;;;;;;;;;;;-0.60;99.90;;;;;;5066818;28;19921;-72
2022/01/19 06:01:50;;;;;;;;;;;-0.50;99.90;;;;;;5061854;28;19928;-73
2022/01/19 06:04:16;;;;;;;;;;;-0.60;99.90;;;;;;5045835;28;19921;-72
2022/01/19 06:06:43;;;;;;;;;;;-0.60;99.90;;;;;;5045778;28;19921;-72
2022/01/19 06:09:21;;;;;;;;;;;-0.60;99.90;;;;;;5045976;28;19921;-73
2022/01/19 06:11:48;;;;;;;;;;;-0.70;99.90;;;;;;5057563;28;19921;-72
2022/01/19 06:14:16;;;;;;;;;;;-0.60;99.90;;;;;;5065698;28;19957;-73
2022/01/19 06:16:45;;;;;;;;;;;-0.60;99.90;;;;;;5065777;28;19920;-68
2022/01/19 06:19:13;;;;;;;;;;;-0.70;99.90;;;;;;5065698;28;19920;-72
2022/01/19 06:21:40;;;;;;;;;;;-0.70;99.90;;;;;;5064682;28;19928;-72
2022/01/19 06:24:06;;;;;;;;;;;-0.70;99.90;;;;;;5063090;28;20200;-72
2022/01/19 06:26:35;;;;;;;;;;;-0.70;99.90;;;;;;5064911;28;19931;-73
2022/01/19 06:29:02;;;;;;;;;;;-0.80;99.90;;;;;;5064585;28;19921;-71
2022/01/19 06:31:30;;;;;;;;;;;-0.90;99.90;;;;;;5059501;28;19928;-73
2022/01/19 06:33:56;;;;;;;;;;;-0.90;99.90;;;;;;5044441;28;20128;-75
2022/01/19 06:36:23;;;;;;;;;;;-0.90;99.90;;;;;;5045554;28;19921;-73
2022/01/19 06:38:50;;;;;;;;;;;-0.80;99.90;;;;;;5045570;28;19925;-73
2022/01/19 06:41:16;;;;;;;;;;;-0.80;99.90;;;;;;5044877;28;19920;-73
2022/01/19 06:43:43;;;;;;;;;;;-0.80;99.90;;;;;;5044325;28;19928;-74
2022/01/19 06:46:10;;;;;;;;;;;-0.80;99.90;;;;;;5043871;28;19927;-73
2022/01/19 06:48:37;;;;;;;;;;;-0.80;99.90;;;;;;5044584;28;19996;-73
2022/01/19 06:51:04;;;;;;;;;;;-0.80;99.90;;;;;;5044674;28;19925;-73
2022/01/19 06:53:31;;;;;;;;;;;-0.80;99.90;;;;;;5044615;28;20204;-73
2022/01/19 06:55:57;;;;;;;;;;;-0.80;99.90;;;;;;5044330;28;20090;-73
2022/01/19 06:58:24;;;;;;;;;;;-0.80;99.90;;;;;;5044372;28;20216;-73
2022/01/19 07:00:51;;;;;;;;;;;-0.80;99.90;;;;;;5044214;28;19921;-73
2022/01/19 07:03:18;;;;;;;;;;;-0.80;99.90;;;;;;5044512;28;19928;-73
2022/01/19 07:05:46;;;;;;;;;;;-0.80;99.90;;;;;;5045845;28;19928;-74
2022/01/19 07:08:13;;;;;;;;;;;-0.80;99.90;;;;;;5055812;28;19927;-74
2022/01/19 07:10:39;;;;;;;;;;;-0.80;99.90;;;;;;5063959;28;19928;-74
2022/01/19 07:13:06;;;;;;;;;;;-0.80;99.90;;;;;;5063929;28;20212;-73
2022/01/19 07:15:33;;;;;;;;;;;-0.80;99.90;;;;;;5063608;28;20116;-74
2022/01/19 07:17:59;;;;;;;;;;;-0.90;99.90;;;;;;5064331;28;19921;-73
2022/01/19 07:20:26;;;;;;;;;;;-0.90;99.90;;;;;;5064590;28;19928;-72
2022/01/19 07:22:56;;;;;;;;;;;-0.90;99.90;;;;;;5064737;28;19920;-72
2022/01/19 07:25:23;;;;;;;;;;;-0.90;99.90;;;;;;5064117;28;19921;-73
2022/01/19 07:27:49;;;;;;;;;;;-0.90;99.90;;;;;;5064473;28;19925;-73
2022/01/19 07:30:16;;;;;;;;;;;-0.90;99.90;;;;;;5063656;28;20208;-73
2022/01/19 07:32:43;;;;;;;;;;;-0.90;99.90;;;;;;5064553;28;19921;-72
2022/01/19 07:35:10;;;;;;;;;;;-0.90;99.90;;;;;;5063823;28;19924;-71
2022/01/19 07:37:37;;;;;;;;;;;-0.90;99.90;;;;;;5064419;28;19927;-71
2022/01/19 07:40:06;;;;;;;;;;;-0.90;99.90;;;;;;5064035;28;19921;-71
2022/01/19 07:42:32;;;;;;;;;;;-0.90;99.90;;;;;;5063634;28;19920;-71
2022/01/19 07:44:59;;;;;;;;;;;-0.80;99.90;;;;;;5063166;28;19921;-71
2022/01/19 07:47:27;;;;;;;;;;;-0.90;99.90;;;;;;5063690;28;19928;-71
2022/01/19 07:49:54;;;;;;;;;;;-0.90;99.90;;;;;;5063421;28;19991;-71
2022/01/19 07:52:21;;;;;;;;;;;-0.90;99.90;;;;;;5063564;28;19927;-71
2022/01/19 07:54:48;;;;;;;;;;;-0.90;99.90;;;;;;5063176;28;20203;-71
2022/01/19 07:57:16;;;;;;;;;;;-0.90;99.90;;;;;;5063440;28;19921;-71
2022/01/19 07:59:42;;;;;;;;;;;-0.80;99.90;;;;;;5063513;28;19921;-71
2022/01/19 08:02:11;;;;;;;;;;;-0.80;99.90;;;;;;5063457;28;19920;-72
2022/01/19 08:04:37;;;;;;;;;;;-0.80;99.90;;;;;;5063247;28;19927;-72
2022/01/19 08:07:04;;;;;;;;;;;-0.80;99.90;;;;;;5063289;28;19921;-72
2022/01/19 08:09:31;;;;;;;;;;;-0.70;99.90;;;;;;5063385;28;19927;-72
2022/01/19 08:11:58;;;;;;;;;;;-0.70;99.90;;;;;;5062757;28;19945;-71
2022/01/19 08:14:26;;;;;;;;;;;-0.70;99.90;;;;;;5063386;28;19927;-71
2022/01/19 08:16:53;;;;;;;;;;;-0.60;99.90;;;;;;5063844;28;20092;-71
2022/01/19 08:19:19;;;;;;;;;;;-0.60;99.90;;;;;;5063841;28;19959;-71
2022/01/19 08:21:46;;;;;;;;;;;-0.60;99.90;;;;;;5062725;28;19920;-72
2022/01/19 08:24:12;;;;;;;;;;;-0.50;99.90;;;;;;5063622;28;19966;-71
2022/01/19 08:26:39;;;;;;;;;;;-0.50;99.90;;;;;;5063527;28;19927;-72
2022/01/19 08:29:13;;;;;;;;;;;-0.40;99.90;;;;;;5063445;28;19929;-71
2022/01/19 08:31:41;;;;;;;;;;;-0.30;99.90;;;;;;5062598;28;19921;-72
2022/01/19 08:34:08;;;;;;;;;;;-0.20;99.90;;;;;;5063422;28;19928;-71
2022/01/19 08:36:34;;;;;;;;;;;-0.10;99.90;;;;;;5063793;28;19921;-71
2022/01/19 08:39:01;;;;;;;;;;;-0.10;99.90;;;;;;5063802;28;19924;-72
2022/01/19 08:41:28;;;;;;;;;;;-0.10;99.90;;;;;;5062372;28;20269;-72
2022/01/19 08:43:54;;;;;;;;;;;0.00;99.90;;;;;;5063042;28;19927;-72
2022/01/19 08:46:21;;;;;;;;;;;0.10;99.90;;;;;;5064001;28;19936;-72
2022/01/19 08:48:49;;;;;;;;;;;0.10;99.90;;;;;;5067416;28;19928;-72
2022/01/19 08:51:16;;;;;;;;;;;0.20;99.90;;;;;;5067358;28;19920;-71
2022/01/19 08:53:42;;;;;;;;;;;0.30;99.90;;;;;;5067037;28;19920;-72
2022/01/19 08:56:09;;;;;;;;;;;0.30;99.90;;;;;;5067337;28;19928;-72
2022/01/19 08:58:35;;;;;;;;;;;0.30;99.90;;;;;;5066995;28;20302;-72
2022/01/19 09:01:02;;;;;;;;;;;0.40;99.90;;;;;;5063764;28;19949;-72
2022/01/19 09:03:29;;;;;;;;;;;0.40;99.90;;;;;;5058991;28;19929;-72
2022/01/19 09:05:57;;;;;;;;;;;0.40;99.90;;;;;;5055164;28;19921;-72
2022/01/19 09:08:34;;;;;;;;;;;0.40;99.90;;;;;;5057089;28;19929;-72
2022/01/19 09:11:01;;;;;;;;;;;0.40;99.90;;;;;;5059227;28;19921;-72
2022/01/19 09:13:28;;;;;;;;;;;0.50;99.90;;;;;;5064340;28;19924;-72
2022/01/19 09:15:54;;;;;;;;;;;0.40;99.90;;;;;;5049722;28;19920;-71
2022/01/19 09:18:21;;;;;;;;;;;0.40;99.90;;;;;;5053043;28;19920;-71
2022/01/19 09:20:48;;;;;;;;;;;0.30;99.90;;;;;;5046740;28;20113;-72
2022/01/19 09:23:16;;;;;;;;;;;0.20;99.90;;;;;;5047032;28;20112;-71
2022/01/19 09:25:43;;;;;;;;;;;0.20;99.90;;;;;;5045637;28;20246;-72
2022/01/19 09:28:10;;;;;;;;;;;0.20;99.90;;;;;;5046725;28;19928;-72
2022/01/19 09:30:37;;;;;;;;;;;0.30;99.90;;;;;;5046520;28;20224;-71
2022/01/19 09:33:08;;;;;;;;;;;0.20;99.90;;;;;;5046828;28;19921;-71
2022/01/19 09:35:51;;;;;;;;;;;0.30;99.90;;;;;;5047581;28;19979;-72
2022/01/19 09:38:19;;;;;;;;;;;0.30;99.90;;;;;;5066705;28;19992;-72
2022/01/19 09:40:46;;;;;;;;;;;0.30;99.90;;;;;;5066207;28;19921;-71
2022/01/19 09:43:13;;;;;;;;;;;0.20;99.90;;;;;;5066619;28;19928;-71
2022/01/19 09:45:40;;;;;;;;;;;0.10;99.90;;;;;;5066461;28;19925;-71
2022/01/19 09:48:06;;;;;;;;;;;0.10;99.90;;;;;;5066388;28;19921;-71
2022/01/19 09:50:33;;;;;;;;;;;0.10;99.90;;;;;;5066001;28;19927;-71
2022/01/19 09:53:03;;;;;;;;;;;0.10;99.90;;;;;;5066337;28;20120;-70
2022/01/19 09:55:31;;;;;;;;;;;0.10;99.90;;;;;;5065534;28;19943;-70
2022/01/19 09:57:57;;;;;;;;;;;0.10;99.90;;;;;;5065962;28;19944;-70
2022/01/19 10:00:24;;;;;;;;;;;0.10;99.90;;;;;;5066098;28;19921;-71
2022/01/19 10:03:05;;;;;;;;;;;0.20;99.90;;;;;;5066064;28;19927;-70
2022/01/19 10:05:32;;;;;;;;;;;0.20;99.90;;;;;;5065308;28;19921;-71
2022/01/19 10:08:00;;;;;;;;;;;0.10;99.90;;;;;;5065755;28;19921;-70
2022/01/19 10:10:27;;;;;;;;;;;0.10;99.90;;;;;;5065865;28;19999;-71
2022/01/19 10:18:25;;;;;;;;;;;0.20;99.90;;;;;;5065645;28;19924;-70
2022/01/19 10:21:04;;;;;;;;;;;0.20;99.90;;;;;;5065867;28;19927;-70
2022/01/19 10:23:35;;;;;;;;;;;0.10;99.90;;;;;;5045770;28;19921;-70
2022/01/19 10:26:03;;;;;;;;;;;0.10;99.90;;;;;;5044564;28;20255;-70
2022/01/19 10:28:31;;;;;;;;;;;0.10;99.90;;;;;;5045842;28;19921;-70
2022/01/19 10:31:00;;;;;;;;;;;0.10;99.90;;;;;;5045606;28;19928;-70
2022/01/19 10:33:27;;;;;;;;;;;0.20;99.90;;;;;;5045572;28;19925;-69
2022/01/19 10:35:53;;;;;;;;;;;0.20;99.90;;;;;;5045092;28;19927;-70
2022/01/19 10:38:23;;;;;;;;;;;0.30;99.90;;;;;;5045211;28;20351;-70
2022/01/19 10:41:10;;;;;;;;;;;0.30;99.90;;;;;;5045078;28;19921;-72
2022/01/19 10:43:40;;;;;;;;;;;0.30;99.90;;;;;;5045308;28;20094;-72
2022/01/19 10:46:21;;;;;;;;;;;0.40;99.90;;;;;;5044991;28;20212;-71
2022/01/19 10:48:48;;;;;;;;;;;0.40;99.90;;;;;;5042516;28;19928;-72
2022/01/19 10:51:16;;;;;;;;;;;0.40;99.90;;;;;;5046937;28;19921;-72
2022/01/19 10:53:44;;;;;;;;;;;0.50;99.90;;;;;;5064747;28;19971;-72
2022/01/19 10:56:27;;;;;;;;;;;0.60;99.90;;;;;;5065094;28;19927;-73
2022/01/19 10:58:59;;;;;;;;;;;0.60;99.90;;;;;;5065013;28;19924;-72
2022/01/19 11:01:32;;;;;;;;;;;0.70;99.90;;;;;;5064452;28;20268;-72
2022/01/19 11:04:14;;;;;;;;;;;0.70;99.90;;;;;;5064779;28;20111;-72
2022/01/19 11:06:41;;;;;;;;;;;0.70;99.90;;;;;;5064442;28;19921;-71
2022/01/19 11:09:13;;;;;;;;;;;0.70;99.90;;;;;;5063817;28;19963;-72
2022/01/19 11:11:40;;;;;;;;;;;0.80;99.90;;;;;;5064346;28;19990;-72
2022/01/19 11:14:08;;;;;;;;;;;0.80;99.90;;;;;;5064659;28;19921;-74
2022/01/19 11:16:34;;;;;;;;;;;0.80;99.90;;;;;;5064876;28;19925;-71
2022/01/19 11:19:01;;;;;;;;;;;0.80;99.90;;;;;;5064839;28;19921;-72
2022/01/19 11:21:29;;;;;;;;;;;0.80;99.90;;;;;;5064387;28;19927;-73
2022/01/19 11:24:01;;;;;;;;;;;0.90;99.90;;;;;;5064384;28;20203;-73
2022/01/19 11:26:40;;;;;;;;;;;1.00;99.90;;;;;;5063953;28;19920;-72
2022/01/19 11:29:15;;;;;;;;;;;1.10;99.90;;;;;;5064499;28;19928;-71
2022/01/19 11:31:42;;;;;;;;;;;1.30;99.90;;;;;;5063904;28;19952;-71
2022/01/19 11:34:09;;;;;;;;;;;1.40;99.90;;;;;;5064340;28;20050;-72
2022/01/19 11:36:36;;;;;;;;;;;1.60;99.90;;;;;;5064526;28;19921;-71
2022/01/19 11:39:07;;;;;;;;;;;1.80;99.90;;;;;;5064447;28;19956;-71
2022/01/19 11:41:38;;;;;;;;;;;2.00;99.90;;;;;;5101202;23;20123;-67
2022/01/19 11:44:05;;;;;;;;;;;2.20;99.90;;;;;;5063648;28;20207;-67
2022/01/19 11:46:34;;;;;;;;;;;2.40;99.90;;;;;;5064168;28;19984;-67
2022/01/19 11:49:02;;;;;;;;;;;2.50;99.90;;;;;;5063932;28;19920;-67
2022/01/19 11:51:29;;;;;;;;;;;2.70;99.90;;;;;;5061809;28;19921;-67
2022/01/19 11:54:03;;;;;;;;;;;2.90;99.90;;;;;;5062413;28;20330;-67
2022/01/19 11:56:30;;;;;;;;;;;3.20;99.90;;;;;;5063686;28;19921;-67
2022/01/19 11:59:08;;;;;;;;;;;3.30;99.90;;;;;;5063633;28;20234;-67
2022/01/19 12:01:36;;;;;;;;;;;3.30;99.90;;;;;;5063513;28;19927;-68
2022/01/19 12:04:13;;;;;;;;;;;3.40;99.90;;;;;;5062794;28;19921;-67
2022/01/19 12:06:39;;;;;;;;;;;3.50;99.90;;;;;;5063727;28;19927;-67
2022/01/19 12:09:08;;;;;;;;;;;3.60;99.90;;;;;;5063535;28;19928;-67
2022/01/19 12:11:37;;;;;;;;;;;3.80;99.90;;;;;;5062982;28;19936;-68
2022/01/19 12:14:11;;;;;;;;;;;4.00;99.90;;;;;;5062685;28;20239;-68
2022/01/19 12:16:54;;;;;;;;;;;3.90;99.90;;;;;;5063047;28;19920;-67
2022/01/19 12:19:23;;;;;;;;;;;3.70;99.90;;;;;;5063720;28;19932;-67
2022/01/19 12:21:54;;;;;;;;;;;3.60;99.90;;;;;;5062398;28;19933;-67
2022/01/19 12:24:22;;;;;;;;;;;3.50;99.90;;;;;;5062903;28;19920;-67
2022/01/19 12:26:53;;;;;;;;;;;3.50;99.90;;;;;;5067535;28;19920;-67
2022/01/19 12:29:36;;;;;;;;;;;3.40;99.90;;;;;;5067389;28;19928;-67
2022/01/19 12:32:06;;;;;;;;;;;3.50;99.90;;;;;;5067340;28;19921;-68
2022/01/19 12:34:40;;;;;;;;;;;3.60;99.90;;;;;;5047212;28;19927;-68
2022/01/19 12:37:07;;;;;;;;;;;3.60;99.90;;;;;;5047647;28;19921;-68
2022/01/19 12:39:35;;;;;;;;;;;3.60;99.90;;;;;;5056847;28;19943;-68
2022/01/19 12:42:04;;;;;;;;;;;3.70;99.90;;;;;;5066878;28;19962;-68
2022/01/19 12:44:42;;;;;;;;;;;3.90;99.90;;;;;;5067255;28;19927;-68
2022/01/19 12:47:23;;;;;;;;;;;4.00;99.90;;;;;;5067460;28;19921;-68
2022/01/19 12:49:52;;;;;;;;;;;4.00;99.90;;;;;;5066058;28;19921;-69
2022/01/19 12:52:19;;;;;;;;;;;3.80;99.90;;;;;;5067426;28;19924;-68
2022/01/19 12:54:46;;;;;;;;;;;3.60;99.90;;;;;;5067100;28;19921;-69
2022/01/19 12:57:15;;;;;;;;;;;3.40;99.90;;;;;;5067132;28;20111;-68
2022/01/19 12:59:42;;;;;;;;;;;3.40;99.90;;;;;;5067257;28;19925;-69
2022/01/19 13:02:09;;;;;;;;;;;3.20;99.90;;;;;;5066834;28;19921;-68
2022/01/19 13:04:37;;;;;;;;;;;3.10;99.90;;;;;;5066557;28;19921;-68
2022/01/19 13:07:18;;;;;;;;;;;3.00;99.90;;;;;;5066670;28;19932;-68
2022/01/19 13:10:05;;;;;;;;;;;3.00;99.90;;;;;;5066503;28;19927;-67
2022/01/19 13:12:33;;;;;;;;;;;2.90;99.90;;;;;;5066255;28;19920;-68
2022/01/19 13:14:59;;;;;;;;;;;2.70;99.90;;;;;;5065635;28;19927;-68
2022/01/19 13:17:39;;;;;;;;;;;2.70;99.90;;;;;;5066309;28;19927;-68
2022/01/19 13:20:10;;;;;;;;;;;2.70;99.90;;;;;;5065403;28;19921;-68
2022/01/19 13:22:45;;;;;;;;;;;2.70;99.90;;;;;;5065771;28;19925;-68
2022/01/19 13:25:15;;;;;;;;;;;2.70;99.90;;;;;;5066131;28;19927;-67
2022/01/19 13:27:42;;;;;;;;;;;2.70;99.90;;;;;;5065800;28;20148;-68
2022/01/19 13:30:11;;;;;;;;;;;2.80;99.90;;;;;;5064770;28;19920;-67
2022/01/19 13:32:38;;;;;;;;;;;2.90;99.90;;;;;;5065215;28;19927;-68
2022/01/19 13:35:06;;;;;;;;;;;2.90;99.90;;;;;;5066650;28;19920;-67
2022/01/19 13:37:33;;;;;;;;;;;3.00;99.90;;;;;;5066746;28;19921;-68
2022/01/19 13:40:06;;;;;;;;;;;3.00;99.90;;;;;;5066752;28;19925;-68
2022/01/19 13:42:34;;;;;;;;;;;3.00;99.90;;;;;;5065970;28;19921;-68
2022/01/19 13:45:08;;;;;;;;;;;3.00;99.90;;;;;;5066074;28;19967;-68
2022/01/19 13:47:52;;;;;;;;;;;3.10;99.90;;;;;;5066360;28;19988;-68
2022/01/19 13:50:18;;;;;;;;;;;3.10;99.90;;;;;;5058157;28;19925;-68
2022/01/19 13:52:45;;;;;;;;;;;3.20;99.90;;;;;;5060073;28;20000;-68
2022/01/19 13:55:18;;;;;;;;;;;3.20;99.90;;;;;;5062326;28;19927;-68
2022/01/19 13:57:44;;;;;;;;;;;3.20;99.90;;;;;;5058070;28;19928;-68
2022/01/19 14:00:12;;;;;;;;;;;3.30;99.90;;;;;;5060850;28;19927;-68
2022/01/19 14:02:38;;;;;;;;;;;3.30;99.90;;;;;;5059049;28;19928;-68
2022/01/19 14:05:05;;;;;;;;;;;3.30;99.90;;;;;;5064691;28;19921;-68
2022/01/19 14:07:32;;;;;;;;;;;3.30;99.90;;;;;;5054698;28;20088;-67
2022/01/19 14:10:05;;;;;;;;;;;3.30;99.90;;;;;;5050238;28;19921;-68
2022/01/19 14:12:33;;;;;;;;;;;3.30;99.90;;;;;;5065533;28;19921;-68
2022/01/19 14:15:02;;;;;;;;;;;3.30;99.90;;;;;;5040839;28;22267;-69
2022/01/19 14:17:31;;;;;;;;;;;3.30;99.90;;;;;;5064975;28;19921;-68
2022/01/19 14:19:58;;;;;;;;;;;3.30;99.90;;;;;;5064893;28;19952;-71
2022/01/19 14:22:25;;;;;;;;;;;3.20;99.90;;;;;;5060516;28;19928;-67
2022/01/19 14:24:53;;;;;;;;;;;3.30;99.90;;;;;;5064731;28;19927;-70
2022/01/19 14:27:35;;;;;;;;;;;3.30;99.90;;;;;;5065563;28;20091;-70
2022/01/19 14:30:04;;;;;;;;;;;3.30;99.90;;;;;;5063022;28;19920;-69
2022/01/19 14:32:41;;;;;;;;;;;3.30;99.90;;;;;;5064820;28;19921;-69
2022/01/19 14:35:20;;;;;;;;;;;3.20;99.90;;;;;;5061023;28;19921;-69
2022/01/19 14:37:58;;;;;;;;;;;3.20;99.90;;;;;;5065265;28;19921;-70
2022/01/19 14:40:26;;;;;;;;;;;3.30;99.90;;;;;;5065223;28;19967;-70
2022/01/19 14:42:54;;;;;;;;;;;3.20;99.90;;;;;;5060113;28;19921;-70
2022/01/19 14:45:24;;;;;;;;;;;3.20;99.90;;;;;;5063335;28;19920;-70
2022/01/19 14:47:54;;;;;;;;;;;3.20;99.90;;;;;;5059387;28;20704;-68
2022/01/19 14:50:21;;;;;;;;;;;3.20;99.90;;;;;;5061576;28;19921;-70
2022/01/19 14:52:49;;;;;;;;;;;3.20;99.90;;;;;;5064206;28;19920;-68
2022/01/19 14:55:17;;;;;;;;;;;3.20;99.90;;;;;;5061452;28;20168;-69
2022/01/19 14:57:43;;;;;;;;;;;3.20;99.90;;;;;;5065091;28;19926;-69
2022/01/19 15:00:12;;;;;;;;;;;3.20;99.90;;;;;;5064409;28;19921;-69
2022/01/19 15:02:39;;;;;;;;;;;3.20;99.90;;;;;;5057217;28;20166;-69
2022/01/19 15:05:05;;;;;;;;;;;3.20;99.90;;;;;;5048476;28;19980;-69
2022/01/19 15:07:33;;;;;;;;;;;3.20;99.90;;;;;;5064550;28;19927;-69
2022/01/19 15:10:01;;;;;;;;;;;3.20;99.90;;;;;;5064249;28;19921;-69
2022/01/19 15:12:28;;;;;;;;;;;3.20;99.90;;;;;;5060942;28;19966;-69
2022/01/19 15:14:55;;;;;;;;;;;3.30;99.90;;;;;;5049599;28;19927;-70
2022/01/19 15:17:23;;;;;;;;;;;3.20;99.90;;;;;;5064645;28;20146;-68
2022/01/19 15:19:49;;;;;;;;;;;3.20;99.90;;;;;;5063758;28;19921;-69
2022/01/19 15:22:16;;;;;;;;;;;3.20;99.90;;;;;;5060705;28;19923;-69
2022/01/19 15:24:42;;;;;;;;;;;3.20;99.90;;;;;;5062729;28;19924;-68
2022/01/19 15:27:09;;;;;;;;;;;3.20;99.90;;;;;;5064302;28;19920;-70
2022/01/19 15:29:36;;;;;;;;;;;3.20;99.90;;;;;;5063692;28;20212;-69
2022/01/19 15:32:03;;;;;;;;;;;3.20;99.90;;;;;;5064075;28;19921;-69